sensor_id;sensor_type;location;lat;lon;timestamp;P1;durP1;ratioP1;P2;durP2;ratioP2
11681;SDS011;5897;42.640;23.310;2024-03-23T00:55:41;18.00;;;7.65;;
11681;SDS011;5897;42.640;23.310;2024-03-23T00:58:08;22.08;;;11.13;;
11681;SDS011;5897;42.640;23.310;2024-03-23T01:00:34;24.08;;;11.85;;
11681;SDS011;5897;42.640;23.310;2024-03-23T01:03:00;25.30;;;13.13;;
11681;SDS011;5897;42.640;23.310;2024-03-23T01:05:26;25.98;;;13.55;;
11681;SDS011;5897;42.640;23.310;2024-03-23T01:07:53;20.45;;;11.90;;
11681;SDS011;5897;42.640;23.310;2024-03-23T01:10:19;20.08;;;12.02;;
11681;SDS011;5897;42.640;23.310;2024-03-23T01:12:46;20.48;;;11.52;;
11681;SDS011;5897;42.640;23.310;2024-03-23T01:15:12;21.90;;;11.93;;
11681;SDS011;5897;42.640;23.310;2024-03-23T01:17:39;15.98;;;9.82;;
11681;SDS011;5897;42.640;23.310;2024-03-23T01:20:05;32.00;;;19.13;;
11681;SDS011;5897;42.640;23.310;2024-03-23T01:22:32;38.10;;;21.75;;
11681;SDS011;5897;42.640;23.310;2024-03-23T01:24:58;33.08;;;19.70;;
11681;SDS011;5897;42.640;23.310;2024-03-23T01:27:25;24.38;;;15.30;;
11681;SDS011;5897;42.640;23.310;2024-03-23T01:29:52;28.27;;;17.00;;
11681;SDS011;5897;42.640;23.310;2024-03-23T01:32:18;27.98;;;15.10;;
11681;SDS011;5897;42.640;23.310;2024-03-23T01:34:44;21.90;;;14.50;;
11681;SDS011;5897;42.640;23.310;2024-03-23T01:37:11;18.90;;;12.57;;
11681;SDS011;5897;42.640;23.310;2024-03-23T01:39:36;19.25;;;12.15;;
11681;SDS011;5897;42.640;23.310;2024-03-23T01:42:03;21.45;;;11.25;;
11681;SDS011;5897;42.640;23.310;2024-03-23T01:44:29;17.98;;;10.68;;
11681;SDS011;5897;42.640;23.310;2024-03-23T01:46:57;15.82;;;11.10;;
11681;SDS011;5897;42.640;23.310;2024-03-23T01:49:23;14.82;;;9.30;;
11681;SDS011;5897;42.640;23.310;2024-03-23T01:51:50;13.60;;;9.18;;
11681;SDS011;5897;42.640;23.310;2024-03-23T01:54:16;14.32;;;8.65;;
11681;SDS011;5897;42.640;23.310;2024-03-23T01:56:43;11.73;;;7.82;;
11681;SDS011;5897;42.640;23.310;2024-03-23T01:59:08;7.82;;;6.53;;
11681;SDS011;5897;42.640;23.310;2024-03-23T02:01:35;8.88;;;6.45;;
11681;SDS011;5897;42.640;23.310;2024-03-23T02:04:02;8.55;;;6.97;;
11681;SDS011;5897;42.640;23.310;2024-03-23T02:06:29;10.25;;;6.03;;
11681;SDS011;5897;42.640;23.310;2024-03-23T02:08:55;7.50;;;6.20;;
11681;SDS011;5897;42.640;23.310;2024-03-23T02:11:22;9.02;;;6.00;;
11681;SDS011;5897;42.640;23.310;2024-03-23T02:13:47;5.90;;;4.50;;
11681;SDS011;5897;42.640;23.310;2024-03-23T02:16:14;6.28;;;4.97;;
11681;SDS011;5897;42.640;23.310;2024-03-23T02:18:40;6.70;;;4.93;;
11681;SDS011;5897;42.640;23.310;2024-03-23T02:21:08;7.22;;;4.95;;
11681;SDS011;5897;42.640;23.310;2024-03-23T02:23:35;11.70;;;5.38;;
11681;SDS011;5897;42.640;23.310;2024-03-23T02:26:01;9.05;;;5.90;;
11681;SDS011;5897;42.640;23.310;2024-03-23T02:28:27;11.57;;;6.35;;
11681;SDS011;5897;42.640;23.310;2024-03-23T02:30:54;8.95;;;6.75;;
11681;SDS011;5897;42.640;23.310;2024-03-23T02:33:20;9.65;;;6.88;;
11681;SDS011;5897;42.640;23.310;2024-03-23T02:35:46;10.45;;;7.35;;
11681;SDS011;5897;42.640;23.310;2024-03-23T02:38:12;8.73;;;7.10;;
11681;SDS011;5897;42.640;23.310;2024-03-23T02:40:40;11.32;;;8.85;;
11681;SDS011;5897;42.640;23.310;2024-03-23T02:43:06;16.92;;;8.63;;
11681;SDS011;5897;42.640;23.310;2024-03-23T02:45:33;10.77;;;7.88;;
11681;SDS011;5897;42.640;23.310;2024-03-23T02:47:58;9.73;;;7.63;;
11681;SDS011;5897;42.640;23.310;2024-03-23T02:50:25;11.18;;;6.03;;
11681;SDS011;5897;42.640;23.310;2024-03-23T02:52:51;10.07;;;4.97;;
11681;SDS011;5897;42.640;23.310;2024-03-23T02:55:17;7.20;;;4.75;;
11681;SDS011;5897;42.640;23.310;2024-03-23T02:57:44;7.57;;;4.93;;
11681;SDS011;5897;42.640;23.310;2024-03-23T03:00:11;7.35;;;4.53;;
11681;SDS011;5897;42.640;23.310;2024-03-23T03:02:38;6.20;;;4.13;;
11681;SDS011;5897;42.640;23.310;2024-03-23T03:05:05;7.13;;;4.80;;
11681;SDS011;5897;42.640;23.310;2024-03-23T03:07:31;6.78;;;5.45;;
11681;SDS011;5897;42.640;23.310;2024-03-23T03:09:58;7.95;;;5.57;;
11681;SDS011;5897;42.640;23.310;2024-03-23T03:12:23;8.52;;;6.38;;
11681;SDS011;5897;42.640;23.310;2024-03-23T03:14:51;8.88;;;5.93;;
11681;SDS011;5897;42.640;23.310;2024-03-23T03:17:17;8.05;;;6.10;;
11681;SDS011;5897;42.640;23.310;2024-03-23T03:19:44;9.25;;;6.40;;
11681;SDS011;5897;42.640;23.310;2024-03-23T03:22:10;7.05;;;6.28;;
11681;SDS011;5897;42.640;23.310;2024-03-23T03:24:37;8.00;;;6.35;;
11681;SDS011;5897;42.640;23.310;2024-03-23T03:27:03;8.10;;;6.70;;
11681;SDS011;5897;42.640;23.310;2024-03-23T03:29:29;7.20;;;6.18;;
11681;SDS011;5897;42.640;23.310;2024-03-23T03:32:02;8.35;;;6.53;;
11681;SDS011;5897;42.640;23.310;2024-03-23T03:34:27;10.02;;;6.95;;
11681;SDS011;5897;42.640;23.310;2024-03-23T03:36:54;7.43;;;6.28;;
11681;SDS011;5897;42.640;23.310;2024-03-23T03:39:20;8.55;;;6.53;;
11681;SDS011;5897;42.640;23.310;2024-03-23T03:41:47;7.97;;;6.32;;
11681;SDS011;5897;42.640;23.310;2024-03-23T03:44:13;10.15;;;7.43;;
11681;SDS011;5897;42.640;23.310;2024-03-23T03:46:40;9.38;;;7.13;;
11681;SDS011;5897;42.640;23.310;2024-03-23T03:49:07;8.18;;;6.70;;
11681;SDS011;5897;42.640;23.310;2024-03-23T03:51:33;7.85;;;6.32;;
11681;SDS011;5897;42.640;23.310;2024-03-23T03:53:59;8.52;;;6.70;;
11681;SDS011;5897;42.640;23.310;2024-03-23T03:56:26;12.10;;;6.97;;
11681;SDS011;5897;42.640;23.310;2024-03-23T03:58:52;8.85;;;7.43;;
11681;SDS011;5897;42.640;23.310;2024-03-23T04:01:19;8.10;;;6.53;;
11681;SDS011;5897;42.640;23.310;2024-03-23T04:03:45;11.88;;;7.15;;
11681;SDS011;5897;42.640;23.310;2024-03-23T04:06:15;9.65;;;7.30;;
11681;SDS011;5897;42.640;23.310;2024-03-23T04:08:44;9.35;;;7.32;;
11681;SDS011;5897;42.640;23.310;2024-03-23T04:11:10;11.75;;;8.00;;
11681;SDS011;5897;42.640;23.310;2024-03-23T04:13:36;12.75;;;7.95;;
11681;SDS011;5897;42.640;23.310;2024-03-23T04:16:03;12.07;;;7.50;;
11681;SDS011;5897;42.640;23.310;2024-03-23T04:18:29;11.65;;;7.68;;
11681;SDS011;5897;42.640;23.310;2024-03-23T04:20:56;10.38;;;7.95;;
11681;SDS011;5897;42.640;23.310;2024-03-23T04:23:23;10.60;;;7.55;;
11681;SDS011;5897;42.640;23.310;2024-03-23T04:25:49;10.82;;;7.68;;
11681;SDS011;5897;42.640;23.310;2024-03-23T04:28:17;12.05;;;7.63;;
11681;SDS011;5897;42.640;23.310;2024-03-23T04:30:43;12.88;;;7.80;;
11681;SDS011;5897;42.640;23.310;2024-03-23T04:33:09;10.70;;;8.23;;
11681;SDS011;5897;42.640;23.310;2024-03-23T04:35:36;13.15;;;8.50;;
11681;SDS011;5897;42.640;23.310;2024-03-23T04:38:01;13.07;;;8.80;;
11681;SDS011;5897;42.640;23.310;2024-03-23T04:40:29;16.98;;;8.40;;
11681;SDS011;5897;42.640;23.310;2024-03-23T04:42:56;12.05;;;9.40;;
11681;SDS011;5897;42.640;23.310;2024-03-23T04:45:23;11.90;;;8.80;;
11681;SDS011;5897;42.640;23.310;2024-03-23T04:47:49;12.45;;;9.30;;
11681;SDS011;5897;42.640;23.310;2024-03-23T04:50:16;14.48;;;9.52;;
11681;SDS011;5897;42.640;23.310;2024-03-23T04:52:43;11.65;;;7.88;;
11681;SDS011;5897;42.640;23.310;2024-03-23T04:55:10;10.77;;;7.85;;
11681;SDS011;5897;42.640;23.310;2024-03-23T04:57:39;10.52;;;8.30;;
11681;SDS011;5897;42.640;23.310;2024-03-23T05:00:06;11.15;;;7.65;;
11681;SDS011;5897;42.640;23.310;2024-03-23T05:02:41;12.20;;;8.45;;
11681;SDS011;5897;42.640;23.310;2024-03-23T05:05:09;16.17;;;9.55;;
11681;SDS011;5897;42.640;23.310;2024-03-23T05:07:34;13.60;;;9.15;;
11681;SDS011;5897;42.640;23.310;2024-03-23T05:10:01;13.75;;;9.00;;
11681;SDS011;5897;42.640;23.310;2024-03-23T05:12:27;13.68;;;9.70;;
11681;SDS011;5897;42.640;23.310;2024-03-23T05:14:55;16.13;;;10.05;;
11681;SDS011;5897;42.640;23.310;2024-03-23T05:17:20;13.32;;;9.38;;
11681;SDS011;5897;42.640;23.310;2024-03-23T05:19:47;14.23;;;10.23;;
11681;SDS011;5897;42.640;23.310;2024-03-23T05:22:13;15.75;;;9.63;;
11681;SDS011;5897;42.640;23.310;2024-03-23T05:24:39;15.13;;;10.07;;
11681;SDS011;5897;42.640;23.310;2024-03-23T05:27:05;15.25;;;9.93;;
11681;SDS011;5897;42.640;23.310;2024-03-23T05:29:32;16.30;;;10.60;;
11681;SDS011;5897;42.640;23.310;2024-03-23T05:31:59;19.33;;;10.13;;
11681;SDS011;5897;42.640;23.310;2024-03-23T05:34:25;15.45;;;10.80;;
11681;SDS011;5897;42.640;23.310;2024-03-23T05:36:51;18.00;;;11.77;;
11681;SDS011;5897;42.640;23.310;2024-03-23T05:39:18;18.35;;;11.90;;
11681;SDS011;5897;42.640;23.310;2024-03-23T05:41:43;22.33;;;12.88;;
11681;SDS011;5897;42.640;23.310;2024-03-23T05:44:10;17.25;;;12.23;;
11681;SDS011;5897;42.640;23.310;2024-03-23T05:46:36;20.55;;;13.10;;
11681;SDS011;5897;42.640;23.310;2024-03-23T05:49:04;19.33;;;12.10;;
11681;SDS011;5897;42.640;23.310;2024-03-23T05:51:30;21.67;;;12.38;;
11681;SDS011;5897;42.640;23.310;2024-03-23T05:53:57;16.63;;;11.75;;
11681;SDS011;5897;42.640;23.310;2024-03-23T05:56:22;18.35;;;12.25;;
11681;SDS011;5897;42.640;23.310;2024-03-23T05:58:51;23.58;;;13.05;;
11681;SDS011;5897;42.640;23.310;2024-03-23T06:01:16;19.80;;;12.13;;
11681;SDS011;5897;42.640;23.310;2024-03-23T06:03:43;18.15;;;11.77;;
11681;SDS011;5897;42.640;23.310;2024-03-23T06:06:10;12.73;;;8.77;;
11681;SDS011;5897;42.640;23.310;2024-03-23T06:08:38;24.55;;;17.63;;
11681;SDS011;5897;42.640;23.310;2024-03-23T06:11:03;19.40;;;14.38;;
11681;SDS011;5897;42.640;23.310;2024-03-23T06:13:31;16.08;;;11.25;;
11681;SDS011;5897;42.640;23.310;2024-03-23T06:15:56;14.95;;;11.20;;
11681;SDS011;5897;42.640;23.310;2024-03-23T06:18:23;15.90;;;12.25;;
11681;SDS011;5897;42.640;23.310;2024-03-23T06:20:49;16.40;;;11.82;;
11681;SDS011;5897;42.640;23.310;2024-03-23T06:23:17;15.52;;;11.20;;
11681;SDS011;5897;42.640;23.310;2024-03-23T06:25:45;17.65;;;10.82;;
11681;SDS011;5897;42.640;23.310;2024-03-23T06:28:12;18.50;;;12.73;;
11681;SDS011;5897;42.640;23.310;2024-03-23T06:30:37;21.63;;;12.70;;
11681;SDS011;5897;42.640;23.310;2024-03-23T06:33:04;32.15;;;13.57;;
11681;SDS011;5897;42.640;23.310;2024-03-23T06:35:30;24.52;;;13.20;;
11681;SDS011;5897;42.640;23.310;2024-03-23T06:37:57;20.27;;;12.13;;
11681;SDS011;5897;42.640;23.310;2024-03-23T06:40:24;20.60;;;12.32;;
11681;SDS011;5897;42.640;23.310;2024-03-23T06:42:51;18.38;;;11.43;;
11681;SDS011;5897;42.640;23.310;2024-03-23T06:45:17;19.70;;;11.23;;
11681;SDS011;5897;42.640;23.310;2024-03-23T06:47:48;14.68;;;9.93;;
11681;SDS011;5897;42.640;23.310;2024-03-23T06:50:14;17.50;;;10.40;;
11681;SDS011;5897;42.640;23.310;2024-03-23T06:52:41;15.38;;;9.65;;
11681;SDS011;5897;42.640;23.310;2024-03-23T06:55:07;17.55;;;10.48;;
11681;SDS011;5897;42.640;23.310;2024-03-23T06:57:36;20.23;;;10.63;;
11681;SDS011;5897;42.640;23.310;2024-03-23T07:00:02;14.77;;;10.13;;
11681;SDS011;5897;42.640;23.310;2024-03-23T07:02:29;15.40;;;10.18;;
11681;SDS011;5897;42.640;23.310;2024-03-23T07:04:54;15.23;;;11.32;;
11681;SDS011;5897;42.640;23.310;2024-03-23T07:07:22;17.40;;;11.40;;
11681;SDS011;5897;42.640;23.310;2024-03-23T07:09:47;14.20;;;10.50;;
11681;SDS011;5897;42.640;23.310;2024-03-23T07:12:14;15.63;;;10.48;;
11681;SDS011;5897;42.640;23.310;2024-03-23T07:14:41;12.15;;;10.18;;
11681;SDS011;5897;42.640;23.310;2024-03-23T07:17:08;12.57;;;9.50;;
11681;SDS011;5897;42.640;23.310;2024-03-23T07:19:33;20.73;;;11.25;;
11681;SDS011;5897;42.640;23.310;2024-03-23T07:22:00;13.32;;;10.32;;
11681;SDS011;5897;42.640;23.310;2024-03-23T07:24:26;16.23;;;10.63;;
11681;SDS011;5897;42.640;23.310;2024-03-23T07:26:52;16.33;;;10.13;;
11681;SDS011;5897;42.640;23.310;2024-03-23T07:29:19;13.75;;;10.82;;
11681;SDS011;5897;42.640;23.310;2024-03-23T07:31:47;15.25;;;10.75;;
11681;SDS011;5897;42.640;23.310;2024-03-23T07:34:13;20.63;;;10.65;;
11681;SDS011;5897;42.640;23.310;2024-03-23T07:36:39;16.48;;;11.23;;
11681;SDS011;5897;42.640;23.310;2024-03-23T07:39:05;14.82;;;10.20;;
11681;SDS011;5897;42.640;23.310;2024-03-23T07:41:33;13.10;;;10.70;;
11681;SDS011;5897;42.640;23.310;2024-03-23T07:43:58;17.92;;;10.70;;
11681;SDS011;5897;42.640;23.310;2024-03-23T07:46:25;12.13;;;10.65;;
11681;SDS011;5897;42.640;23.310;2024-03-23T07:48:52;14.15;;;9.88;;
11681;SDS011;5897;42.640;23.310;2024-03-23T07:51:20;14.30;;;10.45;;
11681;SDS011;5897;42.640;23.310;2024-03-23T07:53:47;16.58;;;11.05;;
11681;SDS011;5897;42.640;23.310;2024-03-23T07:56:14;17.40;;;10.70;;
11681;SDS011;5897;42.640;23.310;2024-03-23T07:58:41;12.93;;;10.43;;
11681;SDS011;5897;42.640;23.310;2024-03-23T08:01:09;15.45;;;10.65;;
11681;SDS011;5897;42.640;23.310;2024-03-23T08:03:35;15.80;;;9.95;;
11681;SDS011;5897;42.640;23.310;2024-03-23T08:06:08;18.20;;;10.48;;
11681;SDS011;5897;42.640;23.310;2024-03-23T08:08:34;13.07;;;10.27;;
11681;SDS011;5897;42.640;23.310;2024-03-23T08:11:01;17.95;;;10.75;;
11681;SDS011;5897;42.640;23.310;2024-03-23T08:13:28;14.10;;;9.95;;
11681;SDS011;5897;42.640;23.310;2024-03-23T08:15:58;14.73;;;9.95;;
11681;SDS011;5897;42.640;23.310;2024-03-23T08:18:24;13.95;;;10.20;;
11681;SDS011;5897;42.640;23.310;2024-03-23T08:20:57;15.63;;;9.85;;
11681;SDS011;5897;42.640;23.310;2024-03-23T08:23:25;12.82;;;9.65;;
11681;SDS011;5897;42.640;23.310;2024-03-23T08:25:52;14.20;;;10.63;;
11681;SDS011;5897;42.640;23.310;2024-03-23T08:28:22;14.27;;;9.95;;
11681;SDS011;5897;42.640;23.310;2024-03-23T08:30:49;17.52;;;10.93;;
11681;SDS011;5897;42.640;23.310;2024-03-23T08:33:14;16.10;;;10.32;;
11681;SDS011;5897;42.640;23.310;2024-03-23T08:35:41;17.63;;;10.98;;
11681;SDS011;5897;42.640;23.310;2024-03-23T08:38:07;17.13;;;10.48;;
11681;SDS011;5897;42.640;23.310;2024-03-23T08:40:35;13.73;;;10.30;;
11681;SDS011;5897;42.640;23.310;2024-03-23T08:43:02;15.68;;;10.30;;
11681;SDS011;5897;42.640;23.310;2024-03-23T08:45:28;17.60;;;10.07;;
11681;SDS011;5897;42.640;23.310;2024-03-23T08:47:54;17.42;;;10.55;;
11681;SDS011;5897;42.640;23.310;2024-03-23T08:50:21;13.27;;;9.05;;
11681;SDS011;5897;42.640;23.310;2024-03-23T08:52:47;15.85;;;10.07;;
11681;SDS011;5897;42.640;23.310;2024-03-23T08:55:13;15.98;;;10.00;;
11681;SDS011;5897;42.640;23.310;2024-03-23T08:57:41;12.20;;;9.80;;
11681;SDS011;5897;42.640;23.310;2024-03-23T09:00:07;11.80;;;9.32;;
11681;SDS011;5897;42.640;23.310;2024-03-23T09:02:36;11.90;;;9.65;;
11681;SDS011;5897;42.640;23.310;2024-03-23T09:05:02;16.77;;;9.10;;
11681;SDS011;5897;42.640;23.310;2024-03-23T09:07:30;11.93;;;9.00;;
11681;SDS011;5897;42.640;23.310;2024-03-23T09:09:56;11.60;;;8.77;;
11681;SDS011;5897;42.640;23.310;2024-03-23T09:12:23;12.75;;;9.07;;
11681;SDS011;5897;42.640;23.310;2024-03-23T09:14:50;14.77;;;8.85;;
11681;SDS011;5897;42.640;23.310;2024-03-23T09:17:18;11.77;;;8.48;;
11681;SDS011;5897;42.640;23.310;2024-03-23T09:19:44;10.90;;;8.95;;
11681;SDS011;5897;42.640;23.310;2024-03-23T09:22:10;10.00;;;8.40;;
11681;SDS011;5897;42.640;23.310;2024-03-23T09:24:36;13.73;;;9.05;;
11681;SDS011;5897;42.640;23.310;2024-03-23T09:27:03;15.18;;;8.20;;
11681;SDS011;5897;42.640;23.310;2024-03-23T09:29:29;16.27;;;8.27;;
11681;SDS011;5897;42.640;23.310;2024-03-23T09:31:57;11.77;;;8.10;;
11681;SDS011;5897;42.640;23.310;2024-03-23T09:34:22;15.63;;;8.23;;
11681;SDS011;5897;42.640;23.310;2024-03-23T09:36:50;14.05;;;8.60;;
11681;SDS011;5897;42.640;23.310;2024-03-23T09:39:16;11.40;;;8.63;;
11681;SDS011;5897;42.640;23.310;2024-03-23T09:41:43;17.98;;;14.70;;
11681;SDS011;5897;42.640;23.310;2024-03-23T09:44:09;15.40;;;9.38;;
11681;SDS011;5897;42.640;23.310;2024-03-23T09:46:35;12.93;;;8.52;;
11681;SDS011;5897;42.640;23.310;2024-03-23T09:49:02;13.07;;;8.35;;
11681;SDS011;5897;42.640;23.310;2024-03-23T09:51:30;11.05;;;7.75;;
11681;SDS011;5897;42.640;23.310;2024-03-23T09:53:56;9.70;;;7.45;;
11681;SDS011;5897;42.640;23.310;2024-03-23T09:56:23;11.15;;;7.30;;
11681;SDS011;5897;42.640;23.310;2024-03-23T09:58:49;9.98;;;7.65;;
11681;SDS011;5897;42.640;23.310;2024-03-23T10:01:15;17.08;;;12.93;;
11681;SDS011;5897;42.640;23.310;2024-03-23T10:03:42;13.75;;;8.23;;
11681;SDS011;5897;42.640;23.310;2024-03-23T10:06:11;9.40;;;7.75;;
11681;SDS011;5897;42.640;23.310;2024-03-23T10:08:36;9.93;;;7.65;;
11681;SDS011;5897;42.640;23.310;2024-03-23T10:11:12;10.40;;;7.65;;
11681;SDS011;5897;42.640;23.310;2024-03-23T10:13:38;12.27;;;7.97;;
11681;SDS011;5897;42.640;23.310;2024-03-23T10:16:08;12.15;;;7.00;;
11681;SDS011;5897;42.640;23.310;2024-03-23T10:18:36;12.30;;;7.85;;
11681;SDS011;5897;42.640;23.310;2024-03-23T10:21:07;12.95;;;8.18;;
11681;SDS011;5897;42.640;23.310;2024-03-23T10:23:37;10.05;;;7.93;;
11681;SDS011;5897;42.640;23.310;2024-03-23T10:26:18;12.07;;;7.45;;
11681;SDS011;5897;42.640;23.310;2024-03-23T10:28:52;11.07;;;7.32;;
11681;SDS011;5897;42.640;23.310;2024-03-23T10:31:26;9.18;;;6.85;;
11681;SDS011;5897;42.640;23.310;2024-03-23T10:33:52;9.75;;;7.32;;
11681;SDS011;5897;42.640;23.310;2024-03-23T10:36:19;10.82;;;7.60;;
11681;SDS011;5897;42.640;23.310;2024-03-23T10:38:47;13.50;;;7.72;;
11681;SDS011;5897;42.640;23.310;2024-03-23T10:41:15;11.95;;;7.63;;
11681;SDS011;5897;42.640;23.310;2024-03-23T10:43:41;11.77;;;8.07;;
11681;SDS011;5897;42.640;23.310;2024-03-23T10:46:11;11.15;;;7.88;;
11681;SDS011;5897;42.640;23.310;2024-03-23T10:48:36;13.00;;;7.70;;
11681;SDS011;5897;42.640;23.310;2024-03-23T10:51:03;10.77;;;7.53;;
11681;SDS011;5897;42.640;23.310;2024-03-23T10:53:31;10.63;;;7.60;;
11681;SDS011;5897;42.640;23.310;2024-03-23T10:56:01;13.05;;;6.30;;
11681;SDS011;5897;42.640;23.310;2024-03-23T10:58:27;7.50;;;6.53;;
11681;SDS011;5897;42.640;23.310;2024-03-23T11:00:57;7.43;;;6.55;;
11681;SDS011;5897;42.640;23.310;2024-03-23T11:03:29;10.65;;;6.43;;
11681;SDS011;5897;42.640;23.310;2024-03-23T11:05:57;12.27;;;8.15;;
11681;SDS011;5897;42.640;23.310;2024-03-23T11:08:32;8.98;;;8.07;;
11681;SDS011;5897;42.640;23.310;2024-03-23T11:11:20;10.90;;;6.40;;
11681;SDS011;5897;42.640;23.310;2024-03-23T11:13:48;14.60;;;8.05;;
11681;SDS011;5897;42.640;23.310;2024-03-23T11:16:15;11.63;;;6.90;;
11681;SDS011;5897;42.640;23.310;2024-03-23T11:18:43;8.35;;;6.22;;
11681;SDS011;5897;42.640;23.310;2024-03-23T11:21:09;8.02;;;6.13;;
11681;SDS011;5897;42.640;23.310;2024-03-23T11:23:36;12.18;;;6.55;;
11681;SDS011;5897;42.640;23.310;2024-03-23T11:26:05;10.27;;;6.07;;
11681;SDS011;5897;42.640;23.310;2024-03-23T11:28:34;9.77;;;6.00;;
11681;SDS011;5897;42.640;23.310;2024-03-23T11:31:00;10.05;;;6.47;;
11681;SDS011;5897;42.640;23.310;2024-03-23T11:33:27;8.20;;;6.93;;
11681;SDS011;5897;42.640;23.310;2024-03-23T11:35:54;10.07;;;6.75;;
11681;SDS011;5897;42.640;23.310;2024-03-23T11:38:20;10.60;;;6.10;;
11681;SDS011;5897;42.640;23.310;2024-03-23T11:40:47;9.60;;;5.90;;
11681;SDS011;5897;42.640;23.310;2024-03-23T11:43:15;11.60;;;6.05;;
11681;SDS011;5897;42.640;23.310;2024-03-23T11:45:44;7.60;;;5.50;;
11681;SDS011;5897;42.640;23.310;2024-03-23T11:48:12;9.70;;;5.32;;
11681;SDS011;5897;42.640;23.310;2024-03-23T11:50:39;8.48;;;5.50;;
11681;SDS011;5897;42.640;23.310;2024-03-23T11:53:07;5.50;;;4.43;;
11681;SDS011;5897;42.640;23.310;2024-03-23T11:55:43;7.03;;;4.63;;
11681;SDS011;5897;42.640;23.310;2024-03-23T11:58:12;9.05;;;5.55;;
11681;SDS011;5897;42.640;23.310;2024-03-23T12:00:38;9.38;;;5.45;;
11681;SDS011;5897;42.640;23.310;2024-03-23T12:03:07;8.38;;;5.10;;
11681;SDS011;5897;42.640;23.310;2024-03-23T12:05:33;8.57;;;5.07;;
11681;SDS011;5897;42.640;23.310;2024-03-23T12:08:19;6.35;;;4.85;;
11681;SDS011;5897;42.640;23.310;2024-03-23T12:10:47;6.75;;;4.32;;
11681;SDS011;5897;42.640;23.310;2024-03-23T12:13:18;6.13;;;4.20;;
11681;SDS011;5897;42.640;23.310;2024-03-23T12:15:45;4.38;;;3.70;;
11681;SDS011;5897;42.640;23.310;2024-03-23T12:18:13;5.20;;;4.63;;
11681;SDS011;5897;42.640;23.310;2024-03-23T12:20:39;10.00;;;7.25;;
11681;SDS011;5897;42.640;23.310;2024-03-23T12:23:07;5.68;;;4.68;;
11681;SDS011;5897;42.640;23.310;2024-03-23T12:25:34;8.18;;;6.35;;
11681;SDS011;5897;42.640;23.310;2024-03-23T12:28:01;6.35;;;5.07;;
11681;SDS011;5897;42.640;23.310;2024-03-23T12:30:27;8.98;;;4.97;;
11681;SDS011;5897;42.640;23.310;2024-03-23T12:32:54;5.28;;;4.65;;
11681;SDS011;5897;42.640;23.310;2024-03-23T12:35:21;5.78;;;4.55;;
11681;SDS011;5897;42.640;23.310;2024-03-23T12:37:48;5.82;;;5.22;;
11681;SDS011;5897;42.640;23.310;2024-03-23T12:40:14;7.50;;;5.07;;
11681;SDS011;5897;42.640;23.310;2024-03-23T12:42:40;3.28;;;2.95;;
11681;SDS011;5897;42.640;23.310;2024-03-23T12:45:06;5.28;;;2.90;;
11681;SDS011;5897;42.640;23.310;2024-03-23T12:47:34;4.10;;;2.88;;
11681;SDS011;5897;42.640;23.310;2024-03-23T12:49:59;5.07;;;2.78;;
11681;SDS011;5897;42.640;23.310;2024-03-23T12:52:28;3.75;;;2.80;;
11681;SDS011;5897;42.640;23.310;2024-03-23T12:54:54;3.22;;;2.80;;
11681;SDS011;5897;42.640;23.310;2024-03-23T12:57:23;3.05;;;2.50;;
11681;SDS011;5897;42.640;23.310;2024-03-23T12:59:49;3.22;;;2.60;;
11681;SDS011;5897;42.640;23.310;2024-03-23T13:02:17;3.90;;;2.47;;
11681;SDS011;5897;42.640;23.310;2024-03-23T13:04:44;2.42;;;2.20;;
11681;SDS011;5897;42.640;23.310;2024-03-23T13:07:12;4.95;;;2.30;;
11681;SDS011;5897;42.640;23.310;2024-03-23T13:09:39;3.08;;;2.30;;
11681;SDS011;5897;42.640;23.310;2024-03-23T13:12:06;3.30;;;1.90;;
11681;SDS011;5897;42.640;23.310;2024-03-23T13:14:32;4.20;;;2.00;;
11681;SDS011;5897;42.640;23.310;2024-03-23T13:16:59;1.88;;;1.60;;
11681;SDS011;5897;42.640;23.310;2024-03-23T13:19:25;2.40;;;1.80;;
11681;SDS011;5897;42.640;23.310;2024-03-23T13:21:53;2.83;;;1.50;;
11681;SDS011;5897;42.640;23.310;2024-03-23T13:24:21;1.50;;;1.30;;
11681;SDS011;5897;42.640;23.310;2024-03-23T13:26:50;2.78;;;1.27;;
11681;SDS011;5897;42.640;23.310;2024-03-23T13:29:16;1.35;;;1.20;;
11681;SDS011;5897;42.640;23.310;2024-03-23T13:31:45;1.58;;;1.10;;
11681;SDS011;5897;42.640;23.310;2024-03-23T13:34:10;1.42;;;1.30;;
11681;SDS011;5897;42.640;23.310;2024-03-23T13:36:38;1.17;;;1.05;;
11681;SDS011;5897;42.640;23.310;2024-03-23T13:39:04;1.65;;;0.90;;
11681;SDS011;5897;42.640;23.310;2024-03-23T13:41:35;1.92;;;1.30;;
11681;SDS011;5897;42.640;23.310;2024-03-23T13:44:03;2.63;;;1.40;;
11681;SDS011;5897;42.640;23.310;2024-03-23T13:46:30;1.42;;;1.17;;
11681;SDS011;5897;42.640;23.310;2024-03-23T13:48:56;0.88;;;0.88;;
11681;SDS011;5897;42.640;23.310;2024-03-23T13:51:23;1.42;;;1.20;;
11681;SDS011;5897;42.640;23.310;2024-03-23T13:53:50;1.25;;;1.02;;
11681;SDS011;5897;42.640;23.310;2024-03-23T13:56:17;2.08;;;1.20;;
11681;SDS011;5897;42.640;23.310;2024-03-23T13:58:43;2.58;;;1.50;;
11681;SDS011;5897;42.640;23.310;2024-03-23T14:01:13;2.65;;;1.30;;
11681;SDS011;5897;42.640;23.310;2024-03-23T14:03:39;1.50;;;1.38;;
11681;SDS011;5897;42.640;23.310;2024-03-23T14:06:06;2.65;;;1.30;;
11681;SDS011;5897;42.640;23.310;2024-03-23T14:08:33;2.13;;;1.20;;
11681;SDS011;5897;42.640;23.310;2024-03-23T14:11:02;3.65;;;1.20;;
11681;SDS011;5897;42.640;23.310;2024-03-23T14:13:29;4.00;;;1.33;;
11681;SDS011;5897;42.640;23.310;2024-03-23T14:15:56;16.20;;;1.80;;
11681;SDS011;5897;42.640;23.310;2024-03-23T14:18:23;3.97;;;1.25;;
11681;SDS011;5897;42.640;23.310;2024-03-23T14:20:51;1.25;;;0.90;;
11681;SDS011;5897;42.640;23.310;2024-03-23T14:23:18;1.40;;;1.30;;
11681;SDS011;5897;42.640;23.310;2024-03-23T14:25:45;2.30;;;1.35;;
11681;SDS011;5897;42.640;23.310;2024-03-23T14:28:10;2.03;;;1.35;;
11681;SDS011;5897;42.640;23.310;2024-03-23T14:30:40;4.00;;;1.33;;
11681;SDS011;5897;42.640;23.310;2024-03-23T14:33:07;1.50;;;1.33;;
11681;SDS011;5897;42.640;23.310;2024-03-23T14:35:35;11.05;;;1.67;;
11681;SDS011;5897;42.640;23.310;2024-03-23T14:38:01;1.77;;;1.45;;
11681;SDS011;5897;42.640;23.310;2024-03-23T14:40:28;1.45;;;1.20;;
11681;SDS011;5897;42.640;23.310;2024-03-23T14:42:54;1.58;;;1.23;;
11681;SDS011;5897;42.640;23.310;2024-03-23T14:45:21;2.47;;;1.10;;
11681;SDS011;5897;42.640;23.310;2024-03-23T14:47:47;7.15;;;1.42;;
11681;SDS011;5897;42.640;23.310;2024-03-23T14:50:14;1.98;;;1.40;;
11681;SDS011;5897;42.640;23.310;2024-03-23T14:52:43;1.80;;;1.70;;
11681;SDS011;5897;42.640;23.310;2024-03-23T14:55:10;1.48;;;1.38;;
11681;SDS011;5897;42.640;23.310;2024-03-23T14:57:36;1.58;;;1.30;;
11681;SDS011;5897;42.640;23.310;2024-03-23T15:00:04;2.10;;;1.30;;
11681;SDS011;5897;42.640;23.310;2024-03-23T15:02:32;2.45;;;1.30;;
11681;SDS011;5897;42.640;23.310;2024-03-23T15:04:59;1.23;;;1.13;;
11681;SDS011;5897;42.640;23.310;2024-03-23T15:07:25;1.50;;;1.30;;
11681;SDS011;5897;42.640;23.310;2024-03-23T15:09:53;3.17;;;1.40;;
11681;SDS011;5897;42.640;23.310;2024-03-23T15:12:19;1.48;;;1.00;;
11681;SDS011;5897;42.640;23.310;2024-03-23T15:14:46;2.33;;;1.13;;
11681;SDS011;5897;42.640;23.310;2024-03-23T15:17:12;1.33;;;1.23;;
11681;SDS011;5897;42.640;23.310;2024-03-23T15:19:39;5.28;;;1.40;;
11681;SDS011;5897;42.640;23.310;2024-03-23T15:22:06;4.38;;;1.50;;
11681;SDS011;5897;42.640;23.310;2024-03-23T15:24:33;3.13;;;1.40;;
11681;SDS011;5897;42.640;23.310;2024-03-23T15:27:02;3.47;;;1.67;;
11681;SDS011;5897;42.640;23.310;2024-03-23T15:29:29;3.88;;;2.10;;